createdAt,value
2022-10-31T00:01:01.094Z,101869.53
2022-10-31T00:06:02.855Z,101880.94
2022-10-31T00:11:04.626Z,101884.00
2022-10-31T00:16:14.134Z,101886.69
2022-10-31T00:21:17.031Z,101882.56
2022-10-31T00:26:18.953Z,101884.75
2022-10-31T00:31:20.620Z,101885.59
2022-10-31T00:36:22.363Z,101883.91
2022-10-31T00:41:24.112Z,101885.28
2022-10-31T00:46:25.882Z,101896.78
2022-10-31T00:51:28.924Z,101896.59
2022-10-31T00:56:30.686Z,101887.09
2022-10-31T01:01:33.780Z,101882.25
2022-10-31T01:06:36.426Z,101885.63
2022-10-31T01:11:38.082Z,101898.38
2022-10-31T01:16:42.625Z,101892.50
2022-10-31T01:21:44.298Z,101890.91
2022-10-31T01:26:45.901Z,101884.44
2022-10-31T01:31:47.537Z,101874.06
2022-10-31T01:36:52.433Z,101874.44
2022-10-31T01:41:57.771Z,101872.91
2022-10-31T01:47:06.244Z,101876.03
2022-10-31T01:52:19.936Z,101873.38
2022-10-31T01:57:22.940Z,101869.78
2022-10-31T02:02:29.419Z,101861.31
2022-10-31T02:07:38.538Z,101861.09
2022-10-31T02:12:41.229Z,101859.84
2022-10-31T02:17:42.902Z,101867.19
2022-10-31T02:23:19.328Z,101862.59
2022-10-31T02:28:43.152Z,101867.94
2022-10-31T02:33:55.984Z,101865.00
2022-10-31T02:39:11.685Z,101858.44
2022-10-31T02:44:29.607Z,101858.53
2022-10-31T02:49:47.583Z,101865.47
2022-10-31T02:54:50.901Z,101865.31
2022-10-31T02:59:58.082Z,101858.75
2022-10-31T03:05:27.744Z,101871.19
2022-10-31T03:10:54.468Z,101858.78
2022-10-31T03:16:06.311Z,101871.00
2022-10-31T03:21:19.489Z,101864.84
2022-10-31T03:26:24.927Z,101861.06
2022-10-31T03:31:36.782Z,101863.81
2022-10-31T03:36:42.590Z,101864.81
2022-10-31T03:41:50.033Z,101876.19
2022-10-31T03:46:52.022Z,101873.47
2022-10-31T03:52:24.656Z,101871.94
2022-10-31T03:57:52.803Z,101877.84
2022-10-31T04:03:07.120Z,101874.78
2022-10-31T04:08:16.466Z,101879.19
2022-10-31T04:13:27.059Z,101873.69
2022-10-31T04:18:37.100Z,101882.97
2022-10-31T04:23:39.080Z,101877.09
2022-10-31T04:28:51.453Z,101884.88
2022-10-31T04:33:53.262Z,101880.22
2022-10-31T04:38:54.971Z,101886.56
2022-10-31T04:44:21.800Z,101886.28
2022-10-31T04:49:27.145Z,101879.84
2022-10-31T04:54:29.388Z,101867.34
2022-10-31T05:00:03.035Z,101864.44
2022-10-31T05:05:07.268Z,101858.88
2022-10-31T05:10:12.321Z,101857.53
2022-10-31T05:15:14.969Z,101852.22
2022-10-31T05:20:48.763Z,101848.28
2022-10-31T05:25:57.537Z,101836.50
2022-10-31T05:30:59.403Z,101835.25
2022-10-31T05:36:01.337Z,101834.22
2022-10-31T05:41:08.389Z,101841.53
2022-10-31T05:46:10.092Z,101836.75
2022-10-31T05:51:32.080Z,101826.34
2022-10-31T05:56:33.798Z,101815.75
2022-10-31T06:01:40.263Z,101814.53
2022-10-31T06:06:51.422Z,101814.94
2022-10-31T06:11:53.335Z,101821.16
2022-10-31T06:17:01.013Z,101829.19
2022-10-31T06:22:40.943Z,101822.06
2022-10-31T06:27:42.661Z,101819.09
2022-10-31T06:32:50.437Z,101830.84
2022-10-31T06:37:55.987Z,101840.44
2022-10-31T06:43:12.325Z,101838.53
2022-10-31T06:48:18.018Z,101829.34
2022-10-31T06:53:46.567Z,101837.25
2022-10-31T06:58:51.120Z,101844.56
2022-10-31T07:04:01.715Z,101853.06
2022-10-31T07:09:06.721Z,101850.16
2022-10-31T07:14:08.519Z,101850.31
2022-10-31T07:19:10.415Z,101851.09
2022-10-31T07:24:12.703Z,101856.34
2022-10-31T07:29:17.205Z,101864.47
2022-10-31T07:34:19.012Z,101856.03
2022-10-31T07:39:44.226Z,101863.59
2022-10-31T07:44:46.160Z,101860.47
2022-10-31T07:49:59.727Z,101860.41
2022-10-31T07:55:20.073Z,101864.16
2022-10-31T08:00:23.752Z,101860.97
2022-10-31T08:05:25.976Z,101862.56
2022-10-31T08:10:47.989Z,101854.22
2022-10-31T08:15:54.796Z,101852.81
2022-10-31T08:21:01.423Z,101860.34
2022-10-31T08:26:03.141Z,101862.63
2022-10-31T08:31:06.785Z,101863.19
2022-10-31T08:36:14.181Z,101845.53
2022-10-31T08:41:27.584Z,101852.78
2022-10-31T08:46:29.374Z,101848.66
2022-10-31T08:51:31.171Z,101849.28
2022-10-31T08:56:32.999Z,101839.16
2022-10-31T09:01:38.820Z,101833.66
2022-10-31T09:06:50.291Z,101835.41
2022-10-31T09:11:58.036Z,101830.91
2022-10-31T09:17:38.038Z,101816.44
2022-10-31T09:23:25.280Z,101822.00
2022-10-31T09:28:27.231Z,101824.56
2022-10-31T09:33:33.044Z,101821.97
2022-10-31T09:38:54.563Z,101809.34
2022-10-31T09:44:12.832Z,101803.31
2022-10-31T09:49:36.672Z,101790.88
2022-10-31T09:54:47.380Z,101791.69
2022-10-31T09:59:50.588Z,101769.16
2022-10-31T10:05:02.717Z,101780.19
2022-10-31T10:10:41.232Z,101778.91
2022-10-31T10:16:34.405Z,101764.00
2022-10-31T10:21:48.270Z,101751.72
2022-10-31T10:27:02.231Z,101749.94
2022-10-31T10:32:13.936Z,101750.22
2022-10-31T10:37:29.335Z,101742.44
2022-10-31T10:42:49.629Z,101728.88
2022-10-31T10:48:06.457Z,101735.91
2022-10-31T10:53:32.829Z,101724.00
2022-10-31T10:58:35.010Z,101704.06
2022-10-31T11:03:39.659Z,101701.00
2022-10-31T11:08:43.229Z,101689.38
2022-10-31T11:13:55.746Z,101685.91
2022-10-31T11:24:55.458Z,101664.41
2022-10-31T11:30:06.706Z,101657.44
2022-10-31T11:35:16.620Z,101657.22
2022-10-31T11:40:22.302Z,101653.13
2022-10-31T11:45:26.391Z,101658.38
2022-10-31T11:50:39.920Z,101655.53
2022-10-31T11:55:41.840Z,101639.25
2022-10-31T14:32:36.555Z,101332.75
2022-10-31T14:38:03.336Z,101312.03
2022-10-31T14:43:20.230Z,101297.31
2022-10-31T14:48:37.159Z,101283.84
2022-10-31T14:53:50.251Z,101270.38
2022-10-31T14:58:53.856Z,101269.50
2022-10-31T15:09:33.478Z,101249.88
2022-10-31T15:14:36.065Z,101247.63
2022-10-31T15:19:38.918Z,101238.91
2022-10-31T15:24:40.919Z,101229.66
2022-10-31T15:29:56.623Z,101213.88
2022-10-31T15:35:03.793Z,101212.56
2022-10-31T15:40:22.776Z,101198.94
2022-10-31T15:45:32.759Z,101195.50
2022-10-31T15:50:46.217Z,101192.47
2022-10-31T15:56:07.992Z,101189.03
2022-10-31T16:01:47.894Z,101188.78
2022-10-31T16:07:13.085Z,101171.09
2022-10-31T16:12:19.948Z,101165.94
2022-10-31T16:17:31.082Z,101154.00
2022-10-31T16:22:39.348Z,101138.66
2022-10-31T16:27:42.351Z,101154.16
2022-10-31T16:32:56.316Z,101157.78
2022-10-31T16:37:58.462Z,101142.03
2022-10-31T16:43:02.258Z,101121.34
2022-10-31T16:48:13.544Z,101110.41
2022-10-31T16:53:18.378Z,101103.75
2022-10-31T16:58:24.226Z,101106.13
2022-10-31T17:03:26.423Z,101102.69
2022-10-31T17:08:28.106Z,101081.59
2022-10-31T17:13:33.930Z,101084.75
2022-10-31T17:18:35.657Z,101073.44
2022-10-31T17:23:38.654Z,101081.75
2022-10-31T17:28:40.642Z,101075.41
2022-10-31T17:33:43.356Z,101069.88
2022-10-31T17:38:45.202Z,101054.28
2022-10-31T17:43:46.934Z,101031.91
2022-10-31T17:48:49.434Z,101013.09
2022-10-31T17:53:51.240Z,101013.72
2022-10-31T17:58:53.161Z,101011.78
2022-10-31T18:03:55.547Z,101001.59
2022-10-31T18:08:58.340Z,100993.47
2022-10-31T18:14:00.313Z,101000.69
2022-10-31T18:19:02.378Z,101010.44
2022-10-31T18:24:04.636Z,101000.22
2022-10-31T18:29:06.525Z,100985.72
2022-10-31T18:34:08.312Z,100975.53
2022-10-31T18:39:11.391Z,100961.03
2022-10-31T18:44:13.122Z,100943.78
2022-10-31T18:49:15.662Z,100933.72
2022-10-31T18:54:18.134Z,100913.44
2022-10-31T18:59:19.931Z,100914.97
2022-10-31T19:04:21.848Z,100922.19
2022-10-31T19:09:24.444Z,100916.81
2022-10-31T19:14:26.242Z,100903.34
2022-10-31T19:19:27.976Z,100916.53
2022-10-31T19:24:29.793Z,100902.50
2022-10-31T19:29:31.419Z,100888.88
2022-10-31T19:34:33.266Z,100881.59
2022-10-31T19:39:38.637Z,100879.03
2022-10-31T19:44:43.032Z,100867.50
2022-10-31T19:49:44.960Z,100878.16
2022-10-31T19:54:46.676Z,100867.28
2022-10-31T19:59:48.598Z,100856.03
2022-10-31T20:04:50.284Z,100859.63
2022-10-31T20:09:53.077Z,100850.91
2022-10-31T20:14:54.807Z,100849.44
2022-10-31T20:19:56.723Z,100846.47
2022-10-31T20:24:58.506Z,100830.34
2022-10-31T20:30:00.287Z,100819.94
2022-10-31T20:35:02.063Z,100810.53
2022-10-31T20:40:03.967Z,100806.09
2022-10-31T20:45:06.008Z,100799.91
2022-10-31T20:50:08.111Z,100796.06
2022-10-31T20:55:09.794Z,100781.38
2022-10-31T21:00:12.615Z,100778.41
2022-10-31T21:05:16.351Z,100778.22
2022-10-31T21:10:30.570Z,100768.44
2022-10-31T21:15:32.672Z,100757.13
2022-10-31T21:20:44.749Z,100759.88
2022-10-31T21:25:47.778Z,100754.78
2022-10-31T21:30:57.241Z,100741.16
2022-10-31T21:35:58.985Z,100730.53
2022-10-31T21:41:08.984Z,100717.72
2022-10-31T21:46:16.968Z,100714.97
2022-10-31T21:51:22.239Z,100705.81
2022-10-31T21:56:24.834Z,100710.50
2022-10-31T22:01:28.991Z,100711.97
2022-10-31T22:06:31.156Z,100715.78
2022-10-31T22:11:34.441Z,100701.09
2022-10-31T22:16:36.756Z,100704.72
2022-10-31T22:21:46.643Z,100696.84
2022-10-31T22:26:48.406Z,100681.72
2022-10-31T22:31:57.233Z,100685.56
2022-10-31T22:37:02.203Z,100672.59
2022-10-31T22:42:03.957Z,100661.50
2022-10-31T22:47:05.609Z,100644.06
2022-10-31T22:52:07.442Z,100640.81
2022-10-31T22:57:09.220Z,100629.09
2022-10-31T23:02:12.573Z,100623.97
2022-10-31T23:07:15.744Z,100622.25
2022-10-31T23:12:36.733Z,100621.59
2022-10-31T23:17:39.169Z,100612.47
2022-10-31T23:22:41.611Z,100612.66
2022-10-31T23:27:43.271Z,100585.00
2022-10-31T23:32:45.151Z,100572.00
2022-10-31T23:37:46.813Z,100563.25
2022-10-31T23:42:48.414Z,100567.50
2022-10-31T23:47:50.043Z,100545.81
2022-10-31T23:52:51.743Z,100539.66
2022-10-31T23:57:53.497Z,100544.78
